Map

Track Data

SID SEASON NUMBER BASIN SUBBASIN NAME ISO_TIME NATURE LAT LON WMO_WIND WMO_PRES WMO_AGENCY TRACK_TYPE DIST2LAND LANDFALL IFLAG USA_AGENCY USA_ATCF_ID USA_LAT USA_LON USA_RECORD USA_STATUS USA_WIND USA_PRES USA_SSHS USA_R34_NE USA_R34_SE USA_R34_SW USA_R34_NW USA_R50_NE USA_R50_SE USA_R50_SW USA_R50_NW USA_R64_NE USA_R64_SE USA_R64_SW USA_R64_NW USA_POCI USA_ROCI USA_RMW USA_EYE TOKYO_LAT TOKYO_LON TOKYO_GRADE TOKYO_WIND TOKYO_PRES TOKYO_R50_DIR TOKYO_R50_LONG TOKYO_R50_SHORT TOKYO_R30_DIR TOKYO_R30_LONG TOKYO_R30_SHORT TOKYO_LAND CMA_LAT CMA_LON CMA_CAT CMA_WIND CMA_PRES HKO_LAT HKO_LON HKO_CAT HKO_WIND HKO_PRES NEWDELHI_LAT NEWDELHI_LON NEWDELHI_GRADE NEWDELHI_WIND NEWDELHI_PRES NEWDELHI_CI NEWDELHI_DP NEWDELHI_POCI REUNION_LAT REUNION_LON REUNION_TYPE REUNION_WIND REUNION_PRES REUNION_TNUM REUNION_CI REUNION_RMW REUNION_R34_NE REUNION_R34_SE REUNION_R34_SW REUNION_R34_NW REUNION_R50_NE REUNION_R50_SE REUNION_R50_SW REUNION_R50_NW REUNION_R64_NE REUNION_R64_SE REUNION_R64_SW REUNION_R64_NW BOM_LAT BOM_LON BOM_TYPE BOM_WIND BOM_PRES BOM_TNUM BOM_CI BOM_RMW BOM_R34_NE BOM_R34_SE BOM_R34_SW BOM_R34_NW BOM_R50_NE BOM_R50_SE BOM_R50_SW BOM_R50_NW BOM_R64_NE BOM_R64_SE BOM_R64_SW BOM_R64_NW BOM_ROCI BOM_POCI BOM_EYE BOM_POS_METHOD BOM_PRES_METHOD NADI_LAT NADI_LON NADI_CAT NADI_WIND NADI_PRES WELLINGTON_LAT WELLINGTON_LON WELLINGTON_WIND WELLINGTON_PRES DS824_LAT DS824_LON DS824_STAGE DS824_WIND DS824_PRES TD9636_LAT TD9636_LON TD9636_STAGE TD9636_WIND TD9636_PRES TD9635_LAT TD9635_LON TD9635_WIND TD9635_PRES TD9635_ROCI NEUMANN_LAT NEUMANN_LON NEUMANN_CLASS NEUMANN_WIND NEUMANN_PRES MLC_LAT MLC_LON MLC_CLASS MLC_WIND MLC_PRES USA_GUST BOM_GUST BOM_GUST_PER REUNION_GUST REUNION_GUST_PER USA_SEAHGT USA_SEARAD_NE USA_SEARAD_SE USA_SEARAD_SW USA_SEARAD_NW STORM_SPEED STORM_DIR
1983198N18255 1983 34 EP MM FLOSSIE 1983-07-17 00:00:00 TS 18.3000 -104.900 25 hurdat_epa main 100 100 O_________O___ hurdat_epa EP061983 18.3000 -104.900 TD 25 -1 18.3000 -104.900 1 25 3 173
1983198N18255 1983 34 EP MM FLOSSIE 1983-07-17 03:00:00 TS 18.1480 -104.886 main 118 118 P_________P___ EP061983 18.1525 -104.890 TD 25 -1 18.1344 -104.875 1 25 3 178
1983198N18255 1983 34 EP MM FLOSSIE 1983-07-17 06:00:00 TS 17.9938 -104.892 25 hurdat_epa main 128 128 O_________P___ hurdat_epa EP061983 18.0000 -104.900 TD 25 -1 17.9751 -104.869 1 25 3 187
1983198N18255 1983 34 EP MM FLOSSIE 1983-07-17 09:00:00 TS 17.8389 -104.933 main 148 148 P_________P___ EP061983 17.8425 -104.943 TD 25 -1 17.8282 -104.905 1 25 3 199
1983198N18255 1983 34 EP MM FLOSSIE 1983-07-17 12:00:00 TS 17.7000 -105.000 25 hurdat_epa main 163 163 O_________O___ hurdat_epa EP061983 17.7000 -105.000 TD 25 -1 17.7000 -105.000 1 25 3 199
1983198N18255 1983 34 EP MM FLOSSIE 1983-07-17 15:00:00 TS 17.5769 -105.030 main 173 173 P_________P___ EP061983 17.5698 -104.983 TD 25 -1 17.5982 -105.171 1 25 3 222
1983198N18255 1983 34 EP MM FLOSSIE 1983-07-17 18:00:00 TS 17.5093 -105.179 25 hurdat_epa main 192 192 O_________P___ hurdat_epa EP061983 17.5000 -105.100 TD 25 -1 17.5371 -105.416 1 25 5 263
1983198N18255 1983 34 EP MM FLOSSIE 1983-07-17 21:00:00 TS 17.5120 -105.581 main 208 208 P_________P___ EP061983 17.5052 -105.533 TD 25 -1 17.5325 -105.728 1 25 9 276
1983198N18255 1983 34 EP MM FLOSSIE 1983-07-18 00:00:00 TS 17.6000 -106.100 25 hurdat_epa main 225 225 O_________O___ hurdat_epa EP061983 17.6000 -106.100 TD 25 -1 17.6000 -106.100 1 25 10 285
1983198N18255 1983 34 EP MM FLOSSIE 1983-07-18 03:00:00 TS 17.7669 -106.589 main 245 245 P_________P___ EP061983 17.7699 -106.607 TD 25 -1 17.7577 -106.533 1 25 10 293
1983198N18255 1983 34 EP MM FLOSSIE 1983-07-18 06:00:00 TS 17.9958 -107.080 25 hurdat_epa main 268 268 O_________P___ hurdat_epa EP061983 18.0000 -107.100 TD 25 -1 17.9832 -107.019 1 25 10 298
1983198N18255 1983 34 EP MM FLOSSIE 1983-07-18 09:00:00 TS 18.2479 -107.554 main 294 288 P_________P___ EP061983 18.2499 -107.565 TD 25 -1 18.2420 -107.521 1 25 10 300
1983198N18255 1983 34 EP MM FLOSSIE 1983-07-18 12:00:00 TS 18.5000 -108.000 25 hurdat_epa main 311 311 O_________O___ hurdat_epa EP061983 18.5000 -108.000 TD 25 -1 18.5000 -108.000 1 25 9 300
1983198N18255 1983 34 EP MM FLOSSIE 1983-07-18 15:00:00 TS 18.7082 -108.409 main 337 337 P_________P___ EP061983 18.7074 -108.415 TD 27 -1 18.7105 -108.392 1 26 9 298
1983198N18255 1983 34 EP MM FLOSSIE 1983-07-18 18:00:00 TS 18.9035 -108.790 30 hurdat_epa main 365 365 O_________P___ hurdat_epa EP061983 18.9000 -108.800 TD 30 -1 18.9140 -108.758 1 27 8 300
1983198N18255 1983 34 EP MM FLOSSIE 1983-07-18 21:00:00 TS 19.1024 -109.131 main 384 384 P_________P___ EP061983 19.0997 -109.135 TD 30 -1 19.1105 -109.120 1 28 8 301
1983198N18255 1983 34 EP MM FLOSSIE 1983-07-19 00:00:00 TS 19.3000 -109.500 30 hurdat_epa main 403 380 O_________O___ hurdat_epa EP061983 19.3000 -109.500 TD 30 -1 19.3000 -109.500 1 30 9 297
1983198N18255 1983 34 EP MM FLOSSIE 1983-07-19 03:00:00 TS 19.5033 -109.975 main 380 360 P_________P___ EP061983 19.5076 -109.992 TD 30 -1 19.4901 -109.925 1 31 10 293
1983198N18255 1983 34 EP MM FLOSSIE 1983-07-19 06:00:00 TS 19.6931 -110.468 30 hurdat_epa main 361 352 O_________P___ hurdat_epa EP061983 19.7000 -110.500 TD 30 -1 19.6722 -110.370 1 32 9 292
1983198N18255 1983 34 EP MM FLOSSIE 1983-07-19 09:00:00 TS 19.8537 -110.888 main 348 347 P_________P___ EP061983 19.8572 -110.908 TD 32 -1 19.8432 -110.831 1 33 8 291
1983198N18255 1983 34 EP MM FLOSSIE 1983-07-19 12:00:00 TS 20.0000 -111.300 35 hurdat_epa main 351 344 O_________O___ hurdat_epa EP061983 20.0000 -111.300 TS 35 0 20.0000 -111.300 2 35 9 291
1983198N18255 1983 34 EP MM FLOSSIE 1983-07-19 15:00:00 TS 20.1578 -111.739 main 349 349 P_________P___ EP061983 20.1574 -111.735 TS 42 0 20.1591 -111.752 2 38 9 290
1983198N18255 1983 34 EP MM FLOSSIE 1983-07-19 18:00:00 TS 20.3004 -112.203 50 hurdat_epa main 369 369 O_________P___ hurdat_epa EP061983 20.3000 -112.200 TS 50 0 20.3016 -112.212 2 42 9 287
1983198N18255 1983 34 EP MM FLOSSIE 1983-07-19 21:00:00 TS 20.4213 -112.681 main 394 394 P_________P___ EP061983 20.4223 -112.677 TS 50 0 20.4183 -112.692 2 46 10 282
1983198N18255 1983 34 EP MM FLOSSIE 1983-07-20 00:00:00 TS 20.5000 -113.200 50 hurdat_epa main 425 425 O_________O___ hurdat_epa EP061983 20.5000 -113.200 TS 50 0 20.5000 -113.200 2 50 10 275
1983198N18255 1983 34 EP MM FLOSSIE 1983-07-20 03:00:00 TS 20.5192 -113.783 main 475 475 P_________P___ EP061983 20.5150 -113.793 TS 47 0 20.5319 -113.755 2 48 11 270
1983198N18255 1983 34 EP MM FLOSSIE 1983-07-20 06:00:00 TS 20.5075 -114.384 45 hurdat_epa main 520 520 O_________P___ hurdat_epa EP061983 20.5000 -114.400 TS 45 0 20.5301 -114.336 2 47 11 269
1983198N18255 1983 34 EP MM FLOSSIE 1983-07-20 09:00:00 TS 20.5031 -114.949 main 548 548 P_________P___ EP061983 20.4998 -114.958 TS 45 0 20.5131 -114.924 2 46 10 270
1983198N18255 1983 34 EP MM FLOSSIE 1983-07-20 12:00:00 TS 20.5000 -115.500 45 hurdat_epa main 584 584 O_________O___ hurdat_epa EP061983 20.5000 -115.500 TS 45 0 20.5000 -115.500 2 45 10 270
1983198N18255 1983 34 EP MM FLOSSIE 1983-07-20 15:00:00 TS 20.4976 -116.053 main 623 623 P_________P___ EP061983 20.4924 -116.058 TS 42 0 20.5131 -116.039 2 41 10 270
1983198N18255 1983 34 EP MM FLOSSIE 1983-07-20 18:00:00 TS 20.5085 -116.591 40 hurdat_epa main 658 658 O_________P___ hurdat_epa EP061983 20.5000 -116.600 TS 40 0 20.5341 -116.565 2 37 10 273
1983198N18255 1983 34 EP MM FLOSSIE 1983-07-20 21:00:00 TS 20.5419 -117.101 main 695 695 P_________P___ EP061983 20.5348 -117.108 TS 35 0 20.5631 -117.083 2 33 9 276
1983198N18255 1983 34 EP MM FLOSSIE 1983-07-21 00:00:00 TS 20.6000 -117.600 30 hurdat_epa main 725 725 O_________O___ hurdat_epa EP061983 20.6000 -117.600 TD 30 -1 20.6000 -117.600 1 30 9 279
1983198N18255 1983 34 EP MM FLOSSIE 1983-07-21 03:00:00 TS 20.6915 -118.099 main 758 758 P_________P___ EP061983 20.7073 -118.092 TD 27 -1 20.6443 -118.120 1 28 10 280
1983198N18255 1983 34 EP MM FLOSSIE 1983-07-21 06:00:00 TS 20.7735 -118.611 25 hurdat_epa main 793 793 O_________P___ hurdat_epa EP061983 20.8000 -118.600 TD 25 -1 20.6939 -118.645 1 27 10 277
1983198N18255 1983 34 EP MM FLOSSIE 1983-07-21 09:00:00 TS 20.8038 -119.148 main 836 836 P_________P___ EP061983 20.8229 -119.140 TD 25 -1 20.7466 -119.172 1 26 10 271
1983198N18255 1983 34 EP MM FLOSSIE 1983-07-21 12:00:00 TS 20.8000 -119.700 25 hurdat_epa main 888 O_________O___ hurdat_epa EP061983 20.8000 -119.700 TD 25 -1 20.8000 -119.700 1 25 10 270

About IBTrACS Database

This database is a web-friendly format of International Best Track Archive for Climate Stewardship (IBTrACS), a global best track data archive curated by NOAA dating back to 1842.

Updated: 2021-10-25